sensor_id;sensor_type;location;lat;lon;timestamp;P1;durP1;ratioP1;P2;durP2;ratioP2
45863;SDS011;31579;52.354;16.974;2022-11-11T00:00:11;15.20;;;6.90;;
45863;SDS011;31579;52.354;16.974;2022-11-11T00:07:23;16.90;;;7.00;;
45863;SDS011;31579;52.354;16.974;2022-11-11T00:12:23;16.90;;;7.00;;
45863;SDS011;31579;52.354;16.974;2022-11-11T00:17:23;17.20;;;6.90;;
45863;SDS011;31579;52.354;16.974;2022-11-11T00:22:23;17.20;;;6.90;;
45863;SDS011;31579;52.354;16.974;2022-11-11T00:27:23;18.50;;;6.70;;
45863;SDS011;31579;52.354;16.974;2022-11-11T00:32:24;18.50;;;6.70;;
45863;SDS011;31579;52.354;16.974;2022-11-11T00:37:23;19.50;;;6.90;;
45863;SDS011;31579;52.354;16.974;2022-11-11T00:42:23;19.50;;;6.90;;
45863;SDS011;31579;52.354;16.974;2022-11-11T00:47:23;15.40;;;6.70;;
45863;SDS011;31579;52.354;16.974;2022-11-11T00:52:23;15.40;;;6.70;;
45863;SDS011;31579;52.354;16.974;2022-11-11T00:57:23;19.00;;;7.60;;
45863;SDS011;31579;52.354;16.974;2022-11-11T01:02:23;19.00;;;7.60;;
45863;SDS011;31579;52.354;16.974;2022-11-11T01:07:23;16.30;;;7.10;;
45863;SDS011;31579;52.354;16.974;2022-11-11T01:12:23;16.30;;;7.10;;
45863;SDS011;31579;52.354;16.974;2022-11-11T01:17:23;20.60;;;7.70;;
45863;SDS011;31579;52.354;16.974;2022-11-11T01:22:23;20.60;;;7.70;;
45863;SDS011;31579;52.354;16.974;2022-11-11T01:27:23;18.40;;;7.10;;
45863;SDS011;31579;52.354;16.974;2022-11-11T01:32:23;18.40;;;7.10;;
45863;SDS011;31579;52.354;16.974;2022-11-11T01:37:24;17.50;;;7.10;;
45863;SDS011;31579;52.354;16.974;2022-11-11T01:42:23;17.50;;;7.10;;
45863;SDS011;31579;52.354;16.974;2022-11-11T01:47:51;15.10;;;7.20;;
45863;SDS011;31579;52.354;16.974;2022-11-11T01:52:51;15.10;;;7.20;;
45863;SDS011;31579;52.354;16.974;2022-11-11T02:02:53;15.40;;;6.70;;
45863;SDS011;31579;52.354;16.974;2022-11-11T02:07:51;17.30;;;6.80;;
45863;SDS011;31579;52.354;16.974;2022-11-11T02:12:59;17.30;;;6.80;;
45863;SDS011;31579;52.354;16.974;2022-11-11T02:17:58;14.80;;;6.30;;
45863;SDS011;31579;52.354;16.974;2022-11-11T02:27:59;14.70;;;6.30;;
45863;SDS011;31579;52.354;16.974;2022-11-11T02:32:58;14.70;;;6.30;;
45863;SDS011;31579;52.354;16.974;2022-11-11T02:37:58;13.30;;;5.40;;
45863;SDS011;31579;52.354;16.974;2022-11-11T02:43:00;13.30;;;5.40;;
45863;SDS011;31579;52.354;16.974;2022-11-11T02:47:58;13.40;;;5.80;;
45863;SDS011;31579;52.354;16.974;2022-11-11T02:52:58;13.40;;;5.80;;
45863;SDS011;31579;52.354;16.974;2022-11-11T02:57:59;16.20;;;5.70;;
45863;SDS011;31579;52.354;16.974;2022-11-11T03:02:58;16.20;;;5.70;;
45863;SDS011;31579;52.354;16.974;2022-11-11T03:07:58;15.10;;;4.90;;
45863;SDS011;31579;52.354;16.974;2022-11-11T03:12:58;15.10;;;4.90;;
45863;SDS011;31579;52.354;16.974;2022-11-11T03:17:58;12.30;;;5.40;;
45863;SDS011;31579;52.354;16.974;2022-11-11T03:22:59;12.30;;;5.40;;
45863;SDS011;31579;52.354;16.974;2022-11-11T03:27:52;16.50;;;5.80;;
45863;SDS011;31579;52.354;16.974;2022-11-11T03:32:50;16.50;;;5.80;;
45863;SDS011;31579;52.354;16.974;2022-11-11T03:37:50;13.80;;;6.20;;
45863;SDS011;31579;52.354;16.974;2022-11-11T03:42:50;13.80;;;6.20;;
45863;SDS011;31579;52.354;16.974;2022-11-11T03:47:50;13.00;;;5.80;;
45863;SDS011;31579;52.354;16.974;2022-11-11T03:52:50;13.00;;;5.80;;
45863;SDS011;31579;52.354;16.974;2022-11-11T03:57:52;15.20;;;6.20;;
45863;SDS011;31579;52.354;16.974;2022-11-11T04:02:50;15.20;;;6.20;;
45863;SDS011;31579;52.354;16.974;2022-11-11T04:07:50;17.30;;;6.00;;
45863;SDS011;31579;52.354;16.974;2022-11-11T04:12:50;17.30;;;6.00;;
45863;SDS011;31579;52.354;16.974;2022-11-11T04:17:50;11.10;;;5.50;;
45863;SDS011;31579;52.354;16.974;2022-11-11T04:22:50;11.10;;;5.50;;
45863;SDS011;31579;52.354;16.974;2022-11-11T04:27:50;13.80;;;6.10;;
45863;SDS011;31579;52.354;16.974;2022-11-11T04:32:50;13.80;;;6.10;;
45863;SDS011;31579;52.354;16.974;2022-11-11T04:37:50;12.00;;;5.40;;
45863;SDS011;31579;52.354;16.974;2022-11-11T04:42:52;12.00;;;5.40;;
45863;SDS011;31579;52.354;16.974;2022-11-11T04:52:50;15.50;;;5.80;;
45863;SDS011;31579;52.354;16.974;2022-11-11T04:57:50;13.60;;;5.50;;
45863;SDS011;31579;52.354;16.974;2022-11-11T05:02:55;13.60;;;5.50;;
45863;SDS011;31579;52.354;16.974;2022-11-11T05:07:53;19.80;;;5.70;;
45863;SDS011;31579;52.354;16.974;2022-11-11T05:12:53;19.80;;;5.70;;
45863;SDS011;31579;52.354;16.974;2022-11-11T05:17:53;15.80;;;5.70;;
45863;SDS011;31579;52.354;16.974;2022-11-11T05:22:53;15.80;;;5.70;;
45863;SDS011;31579;52.354;16.974;2022-11-11T05:27:54;11.40;;;5.50;;
45863;SDS011;31579;52.354;16.974;2022-11-11T05:32:53;11.40;;;5.50;;
45863;SDS011;31579;52.354;16.974;2022-11-11T05:37:53;15.70;;;6.00;;
45863;SDS011;31579;52.354;16.974;2022-11-11T05:42:53;15.70;;;6.00;;
45863;SDS011;31579;52.354;16.974;2022-11-11T05:47:53;11.40;;;5.90;;
45863;SDS011;31579;52.354;16.974;2022-11-11T05:52:53;11.40;;;5.90;;
45863;SDS011;31579;52.354;16.974;2022-11-11T05:57:53;11.80;;;5.60;;
45863;SDS011;31579;52.354;16.974;2022-11-11T06:02:53;11.80;;;5.60;;
45863;SDS011;31579;52.354;16.974;2022-11-11T06:07:05;15.30;;;5.40;;
45863;SDS011;31579;52.354;16.974;2022-11-11T06:12:03;15.30;;;5.40;;
45863;SDS011;31579;52.354;16.974;2022-11-11T06:17:03;12.40;;;5.90;;
45863;SDS011;31579;52.354;16.974;2022-11-11T06:17:58;12.40;;;5.90;;
45863;SDS011;31579;52.354;16.974;2022-11-11T06:22:56;12.40;;;5.90;;
45863;SDS011;31579;52.354;16.974;2022-11-11T06:27:56;15.80;;;6.30;;
45863;SDS011;31579;52.354;16.974;2022-11-11T06:32:56;15.80;;;6.30;;
45863;SDS011;31579;52.354;16.974;2022-11-11T06:37:56;13.40;;;5.70;;
45863;SDS011;31579;52.354;16.974;2022-11-11T06:42:57;13.40;;;5.70;;
45863;SDS011;31579;52.354;16.974;2022-11-11T06:48:01;15.00;;;6.00;;
45863;SDS011;31579;52.354;16.974;2022-11-11T06:53:02;15.00;;;6.00;;
45863;SDS011;31579;52.354;16.974;2022-11-11T06:58:03;14.80;;;6.10;;
45863;SDS011;31579;52.354;16.974;2022-11-11T07:03:00;14.80;;;6.10;;
45863;SDS011;31579;52.354;16.974;2022-11-11T07:07:59;15.20;;;6.10;;
45863;SDS011;31579;52.354;16.974;2022-11-11T07:12:56;15.20;;;6.10;;
45863;SDS011;31579;52.354;16.974;2022-11-11T07:25:03;13.40;;;5.60;;
45863;SDS011;31579;52.354;16.974;2022-11-11T07:30:03;14.50;;;5.60;;
45863;SDS011;31579;52.354;16.974;2022-11-11T07:35:03;14.50;;;5.60;;
45863;SDS011;31579;52.354;16.974;2022-11-11T07:40:03;15.50;;;5.70;;
45863;SDS011;31579;52.354;16.974;2022-11-11T07:45:03;15.50;;;5.70;;
45863;SDS011;31579;52.354;16.974;2022-11-11T07:55:04;13.60;;;6.10;;
45863;SDS011;31579;52.354;16.974;2022-11-11T08:00:04;11.70;;;5.00;;
45863;SDS011;31579;52.354;16.974;2022-11-11T08:05:04;11.70;;;5.00;;
45863;SDS011;31579;52.354;16.974;2022-11-11T08:10:04;13.90;;;5.60;;
45863;SDS011;31579;52.354;16.974;2022-11-11T08:15:04;13.90;;;5.60;;
45863;SDS011;31579;52.354;16.974;2022-11-11T08:20:07;12.70;;;5.50;;
45863;SDS011;31579;52.354;16.974;2022-11-11T08:25:06;12.70;;;5.50;;
45863;SDS011;31579;52.354;16.974;2022-11-11T08:30:05;14.50;;;5.50;;
45863;SDS011;31579;52.354;16.974;2022-11-11T08:35:04;14.50;;;5.50;;
45863;SDS011;31579;52.354;16.974;2022-11-11T08:40:04;10.70;;;5.50;;
45863;SDS011;31579;52.354;16.974;2022-11-11T08:45:04;10.70;;;5.50;;
45863;SDS011;31579;52.354;16.974;2022-11-11T08:50:04;13.80;;;5.60;;
45863;SDS011;31579;52.354;16.974;2022-11-11T08:55:04;13.80;;;5.60;;
45863;SDS011;31579;52.354;16.974;2022-11-11T09:00:04;14.30;;;6.40;;
45863;SDS011;31579;52.354;16.974;2022-11-11T09:05:04;14.30;;;6.40;;
45863;SDS011;31579;52.354;16.974;2022-11-11T09:10:04;13.30;;;5.90;;
45863;SDS011;31579;52.354;16.974;2022-11-11T09:15:04;13.30;;;5.90;;
45863;SDS011;31579;52.354;16.974;2022-11-11T09:20:04;14.10;;;5.70;;
45863;SDS011;31579;52.354;16.974;2022-11-11T09:25:04;14.10;;;5.70;;
45863;SDS011;31579;52.354;16.974;2022-11-11T09:30:04;16.50;;;5.90;;
45863;SDS011;31579;52.354;16.974;2022-11-11T09:35:04;16.50;;;5.90;;
45863;SDS011;31579;52.354;16.974;2022-11-11T09:40:23;14.20;;;5.70;;
45863;SDS011;31579;52.354;16.974;2022-11-11T09:50:22;13.10;;;5.90;;
45863;SDS011;31579;52.354;16.974;2022-11-11T09:55:35;13.10;;;5.90;;
45863;SDS011;31579;52.354;16.974;2022-11-11T10:00:21;15.40;;;6.10;;
45863;SDS011;31579;52.354;16.974;2022-11-11T10:05:23;15.40;;;6.10;;
45863;SDS011;31579;52.354;16.974;2022-11-11T10:15:21;11.60;;;5.60;;
45863;SDS011;31579;52.354;16.974;2022-11-11T10:20:25;16.70;;;6.60;;
45863;SDS011;31579;52.354;16.974;2022-11-11T10:25:22;16.70;;;6.60;;
45863;SDS011;31579;52.354;16.974;2022-11-11T10:28:30;14.60;;;6.10;;
45863;SDS011;31579;52.354;16.974;2022-11-11T10:38:30;11.50;;;6.10;;
45863;SDS011;31579;52.354;16.974;2022-11-11T10:43:28;11.50;;;6.10;;
45863;SDS011;31579;52.354;16.974;2022-11-11T10:48:32;11.20;;;5.90;;
45863;SDS011;31579;52.354;16.974;2022-11-11T10:58:31;11.90;;;6.10;;
45863;SDS011;31579;52.354;16.974;2022-11-11T11:08:29;11.80;;;5.80;;
45863;SDS011;31579;52.354;16.974;2022-11-11T11:13:42;11.80;;;5.80;;
45863;SDS011;31579;52.354;16.974;2022-11-11T11:18:27;15.70;;;6.20;;
45863;SDS011;31579;52.354;16.974;2022-11-11T11:28:27;10.30;;;5.30;;
45863;SDS011;31579;52.354;16.974;2022-11-11T11:33:30;10.30;;;5.30;;
45863;SDS011;31579;52.354;16.974;2022-11-11T11:38:39;13.30;;;5.80;;
45863;SDS011;31579;52.354;16.974;2022-11-11T12:13:36;12.20;;;5.40;;
45863;SDS011;31579;52.354;16.974;2022-11-11T12:48:31;16.00;;;6.30;;
45863;SDS011;31579;52.354;16.974;2022-11-11T12:58:30;14.10;;;5.20;;
45863;SDS011;31579;52.354;16.974;2022-11-11T13:03:34;14.10;;;5.20;;
45863;SDS011;31579;52.354;16.974;2022-11-11T13:18:29;12.80;;;5.60;;
45863;SDS011;31579;52.354;16.974;2022-11-11T13:23:27;12.80;;;5.60;;
45863;SDS011;31579;52.354;16.974;2022-11-11T13:28:33;15.50;;;6.00;;
45863;SDS011;31579;52.354;16.974;2022-11-11T13:33:35;15.50;;;6.00;;
45863;SDS011;31579;52.354;16.974;2022-11-11T13:38:34;12.70;;;5.80;;
45863;SDS011;31579;52.354;16.974;2022-11-11T13:42:57;12.70;;;5.80;;
45863;SDS011;31579;52.354;16.974;2022-11-11T13:47:55;13.20;;;5.70;;
45863;SDS011;31579;52.354;16.974;2022-11-11T13:53:03;13.20;;;5.70;;
45863;SDS011;31579;52.354;16.974;2022-11-11T13:57:55;14.60;;;6.80;;
45863;SDS011;31579;52.354;16.974;2022-11-11T14:04:05;14.60;;;6.80;;
45863;SDS011;31579;52.354;16.974;2022-11-11T14:09:02;14.50;;;6.70;;
45863;SDS011;31579;52.354;16.974;2022-11-11T14:24:02;16.80;;;7.30;;
45863;SDS011;31579;52.354;16.974;2022-11-11T14:29:13;16.20;;;6.60;;
45863;SDS011;31579;52.354;16.974;2022-11-11T14:49:02;12.40;;;6.20;;
45863;SDS011;31579;52.354;16.974;2022-11-11T14:54:02;12.40;;;6.20;;
45863;SDS011;31579;52.354;16.974;2022-11-11T14:59:05;15.10;;;7.50;;
45863;SDS011;31579;52.354;16.974;2022-11-11T15:04:02;15.10;;;7.50;;
45863;SDS011;31579;52.354;16.974;2022-11-11T15:41:31;22.90;;;11.60;;
45863;SDS011;31579;52.354;16.974;2022-11-11T15:46:29;25.70;;;13.30;;
45863;SDS011;31579;52.354;16.974;2022-11-11T15:51:30;25.70;;;13.30;;
45863;SDS011;31579;52.354;16.974;2022-11-11T15:56:30;23.30;;;11.50;;
45863;SDS011;31579;52.354;16.974;2022-11-11T16:01:29;23.30;;;11.50;;
45863;SDS011;31579;52.354;16.974;2022-11-11T16:06:29;38.50;;;16.90;;
45863;SDS011;31579;52.354;16.974;2022-11-11T16:07:30;38.50;;;16.90;;
45863;SDS011;31579;52.354;16.974;2022-11-11T16:12:29;38.50;;;16.90;;
45863;SDS011;31579;52.354;16.974;2022-11-11T16:21:06;37.40;;;18.00;;
45863;SDS011;31579;52.354;16.974;2022-11-11T16:26:05;34.20;;;17.80;;
45863;SDS011;31579;52.354;16.974;2022-11-11T16:31:19;34.20;;;17.80;;
45863;SDS011;31579;52.354;16.974;2022-11-11T16:36:06;33.30;;;17.80;;
45863;SDS011;31579;52.354;16.974;2022-11-11T16:58:19;36.20;;;19.40;;
45863;SDS011;31579;52.354;16.974;2022-11-11T17:08:33;41.50;;;20.60;;
45863;SDS011;31579;52.354;16.974;2022-11-11T17:13:18;41.50;;;20.60;;
45863;SDS011;31579;52.354;16.974;2022-11-11T17:22:15;46.40;;;23.90;;
45863;SDS011;31579;52.354;16.974;2022-11-11T17:27:15;42.00;;;22.40;;
45863;SDS011;31579;52.354;16.974;2022-11-11T17:32:15;42.00;;;22.40;;
45863;SDS011;31579;52.354;16.974;2022-11-11T17:40:43;64.30;;;33.10;;
45863;SDS011;31579;52.354;16.974;2022-11-11T17:45:40;48.30;;;25.10;;
45863;SDS011;31579;52.354;16.974;2022-11-11T17:50:40;48.30;;;25.10;;
45863;SDS011;31579;52.354;16.974;2022-11-11T17:55:40;44.10;;;23.20;;
45863;SDS011;31579;52.354;16.974;2022-11-11T18:00:40;44.10;;;23.20;;
45863;SDS011;31579;52.354;16.974;2022-11-11T18:05:43;30.80;;;17.30;;
45863;SDS011;31579;52.354;16.974;2022-11-11T18:10:40;30.80;;;17.30;;
45863;SDS011;31579;52.354;16.974;2022-11-11T18:15:40;35.60;;;16.90;;
45863;SDS011;31579;52.354;16.974;2022-11-11T18:20:40;35.60;;;16.90;;
45863;SDS011;31579;52.354;16.974;2022-11-11T18:25:40;34.10;;;17.40;;
45863;SDS011;31579;52.354;16.974;2022-11-11T18:30:40;34.10;;;17.40;;
45863;SDS011;31579;52.354;16.974;2022-11-11T18:35:40;38.80;;;20.20;;
45863;SDS011;31579;52.354;16.974;2022-11-11T18:39:49;38.80;;;20.20;;
45863;SDS011;31579;52.354;16.974;2022-11-11T18:42:04;38.80;;;20.20;;
45863;SDS011;31579;52.354;16.974;2022-11-11T18:47:02;40.30;;;20.40;;
45863;SDS011;31579;52.354;16.974;2022-11-11T18:52:02;40.30;;;20.40;;
45863;SDS011;31579;52.354;16.974;2022-11-11T18:57:02;36.60;;;21.30;;
45863;SDS011;31579;52.354;16.974;2022-11-11T19:02:02;36.60;;;21.30;;
45863;SDS011;31579;52.354;16.974;2022-11-11T19:07:02;41.40;;;21.80;;
45863;SDS011;31579;52.354;16.974;2022-11-11T19:12:06;41.40;;;21.80;;
45863;SDS011;31579;52.354;16.974;2022-11-11T19:17:02;41.20;;;22.70;;
45863;SDS011;31579;52.354;16.974;2022-11-11T19:22:02;41.20;;;22.70;;
45863;SDS011;31579;52.354;16.974;2022-11-11T19:27:02;64.60;;;30.20;;
45863;SDS011;31579;52.354;16.974;2022-11-11T19:32:02;64.60;;;30.20;;
45863;SDS011;31579;52.354;16.974;2022-11-11T19:37:02;74.50;;;31.90;;
45863;SDS011;31579;52.354;16.974;2022-11-11T19:42:02;74.50;;;31.90;;
45863;SDS011;31579;52.354;16.974;2022-11-11T19:47:02;73.50;;;32.60;;
45863;SDS011;31579;52.354;16.974;2022-11-11T19:52:02;73.50;;;32.60;;
45863;SDS011;31579;52.354;16.974;2022-11-11T19:57:02;47.90;;;24.90;;
45863;SDS011;31579;52.354;16.974;2022-11-11T20:02:02;47.90;;;24.90;;
45863;SDS011;31579;52.354;16.974;2022-11-11T20:07:02;34.70;;;18.20;;
45863;SDS011;31579;52.354;16.974;2022-11-11T20:12:02;34.70;;;18.20;;
45863;SDS011;31579;52.354;16.974;2022-11-11T20:17:02;34.70;;;18.20;;
45863;SDS011;31579;52.354;16.974;2022-11-11T20:22:02;34.70;;;18.20;;
45863;SDS011;31579;52.354;16.974;2022-11-11T20:27:02;38.00;;;19.40;;
45863;SDS011;31579;52.354;16.974;2022-11-11T20:32:06;38.00;;;19.40;;
45863;SDS011;31579;52.354;16.974;2022-11-11T20:37:02;42.70;;;21.50;;
45863;SDS011;31579;52.354;16.974;2022-11-11T20:42:02;42.70;;;21.50;;
45863;SDS011;31579;52.354;16.974;2022-11-11T20:47:02;37.70;;;19.20;;
45863;SDS011;31579;52.354;16.974;2022-11-11T20:52:02;37.70;;;19.20;;
45863;SDS011;31579;52.354;16.974;2022-11-11T20:57:02;35.90;;;17.80;;
45863;SDS011;31579;52.354;16.974;2022-11-11T21:02:02;35.90;;;17.80;;
45863;SDS011;31579;52.354;16.974;2022-11-11T21:07:02;39.80;;;20.20;;
45863;SDS011;31579;52.354;16.974;2022-11-11T21:12:02;39.80;;;20.20;;
45863;SDS011;31579;52.354;16.974;2022-11-11T21:17:02;34.40;;;18.80;;
45863;SDS011;31579;52.354;16.974;2022-11-11T21:22:02;34.40;;;18.80;;
45863;SDS011;31579;52.354;16.974;2022-11-11T21:27:02;38.90;;;19.90;;
45863;SDS011;31579;52.354;16.974;2022-11-11T21:32:02;38.90;;;19.90;;
45863;SDS011;31579;52.354;16.974;2022-11-11T21:37:02;42.20;;;20.30;;
45863;SDS011;31579;52.354;16.974;2022-11-11T21:45:27;34.10;;;18.70;;
45863;SDS011;31579;52.354;16.974;2022-11-11T21:50:26;34.10;;;18.70;;
45863;SDS011;31579;52.354;16.974;2022-11-11T21:55:26;46.10;;;23.40;;
45863;SDS011;31579;52.354;16.974;2022-11-11T22:00:26;46.10;;;23.40;;
45863;SDS011;31579;52.354;16.974;2022-11-11T22:05:26;34.20;;;16.90;;
45863;SDS011;31579;52.354;16.974;2022-11-11T22:10:30;34.20;;;16.90;;
45863;SDS011;31579;52.354;16.974;2022-11-11T22:15:26;28.80;;;14.30;;
45863;SDS011;31579;52.354;16.974;2022-11-11T22:20:26;28.80;;;14.30;;
45863;SDS011;31579;52.354;16.974;2022-11-11T22:25:27;25.50;;;11.90;;
45863;SDS011;31579;52.354;16.974;2022-11-11T22:30:26;25.50;;;11.90;;
45863;SDS011;31579;52.354;16.974;2022-11-11T22:35:26;25.60;;;12.00;;
45863;SDS011;31579;52.354;16.974;2022-11-11T22:40:26;25.60;;;12.00;;
45863;SDS011;31579;52.354;16.974;2022-11-11T22:42:29;25.60;;;12.00;;
45863;SDS011;31579;52.354;16.974;2022-11-11T22:47:28;23.20;;;11.90;;
45863;SDS011;31579;52.354;16.974;2022-11-11T22:52:28;23.20;;;11.90;;
45863;SDS011;31579;52.354;16.974;2022-11-11T22:57:28;22.00;;;11.60;;
45863;SDS011;31579;52.354;16.974;2022-11-11T23:04:45;21.60;;;11.30;;
45863;SDS011;31579;52.354;16.974;2022-11-11T23:09:45;21.60;;;11.30;;
45863;SDS011;31579;52.354;16.974;2022-11-11T23:14:45;26.40;;;12.30;;
45863;SDS011;31579;52.354;16.974;2022-11-11T23:19:55;26.40;;;12.30;;
45863;SDS011;31579;52.354;16.974;2022-11-11T23:24:53;23.60;;;12.30;;
45863;SDS011;31579;52.354;16.974;2022-11-11T23:29:53;23.60;;;12.30;;
45863;SDS011;31579;52.354;16.974;2022-11-11T23:34:53;25.20;;;13.30;;
45863;SDS011;31579;52.354;16.974;2022-11-11T23:39:53;25.20;;;13.30;;
45863;SDS011;31579;52.354;16.974;2022-11-11T23:44:53;30.70;;;14.40;;
45863;SDS011;31579;52.354;16.974;2022-11-11T23:49:53;30.70;;;14.40;;
45863;SDS011;31579;52.354;16.974;2022-11-11T23:52:59;30.70;;;14.40;;
45863;SDS011;31579;52.354;16.974;2022-11-11T23:56:24;29.70;;;14.10;;
